createdAt,value
2019-04-29T00:01:27.425Z,101767.45
2019-04-29T00:04:47.779Z,101763.28
2019-04-29T00:08:04.656Z,101749.10
2019-04-29T00:11:21.535Z,101744.55
2019-04-29T00:14:39.813Z,101745.02
2019-04-29T00:18:16.301Z,101747.95
2019-04-29T00:21:24.305Z,101751.84
2019-04-29T00:24:30.651Z,101743.73
2019-04-29T00:27:38.012Z,101746.73
2019-04-29T00:30:45.425Z,101747.13
2019-04-29T00:34:02.239Z,101742.87
2019-04-29T00:37:33.155Z,101745.80
2019-04-29T00:41:02.612Z,101736.95
2019-04-29T00:44:12.141Z,101741.16
2019-04-29T00:47:17.809Z,101734.73
2019-04-29T00:50:34.228Z,101732.09
2019-04-29T00:53:52.829Z,101734.61
2019-04-29T00:57:15.778Z,101735.42
2019-04-29T01:00:37.431Z,101730.69
2019-04-29T01:03:54.143Z,101724.77
2019-04-29T01:07:11.021Z,101724.73
2019-04-29T01:10:27.802Z,101720.80
2019-04-29T01:13:44.675Z,101731.83
2019-04-29T01:17:01.249Z,101728.33
2019-04-29T01:20:08.632Z,101732.16
2019-04-29T01:23:27.260Z,101724.91
2019-04-29T01:26:50.117Z,101729.23
2019-04-29T01:29:57.394Z,101730.05
2019-04-29T01:33:04.864Z,101727.93
2019-04-29T01:36:28.968Z,101719.76
2019-04-29T01:39:42.333Z,101718.91
2019-04-29T01:42:49.664Z,101720.59
2019-04-29T01:45:57.094Z,101715.45
2019-04-29T01:49:04.650Z,101712.02
2019-04-29T01:52:12.270Z,101711.98
2019-04-29T01:55:28.948Z,101706.77
2019-04-29T01:58:36.311Z,101706.03
2019-04-29T02:01:52.998Z,101707.94
2019-04-29T02:05:09.761Z,101703.67
2019-04-29T02:08:26.786Z,101704.84
2019-04-29T02:11:34.331Z,101706.27
2019-04-29T02:14:41.649Z,101704.84
2019-04-29T02:17:48.932Z,101701.55
2019-04-29T02:20:56.266Z,101700.70
2019-04-29T02:24:11.164Z,101700.38
2019-04-29T02:27:18.534Z,101698.59
2019-04-29T02:30:42.378Z,101701.19
2019-04-29T02:33:48.453Z,101693.98
2019-04-29T02:37:06.676Z,101686.61
2019-04-29T02:40:41.997Z,101694.72
2019-04-29T02:43:51.049Z,101696.03
2019-04-29T02:46:58.623Z,101698.59
2019-04-29T02:50:06.469Z,101695.49
2019-04-29T02:53:23.355Z,101694.55
2019-04-29T02:56:30.180Z,101697.64
2019-04-29T02:59:41.754Z,101697.21
2019-04-29T03:03:01.533Z,101693.70
2019-04-29T03:06:08.922Z,101693.16
2019-04-29T03:09:16.229Z,101683.84
2019-04-29T03:12:23.706Z,101691.73
2019-04-29T03:15:33.689Z,101691.77
2019-04-29T03:18:46.157Z,101697.28
2019-04-29T03:21:56.073Z,101694.46
2019-04-29T03:25:03.538Z,101700.05
2019-04-29T03:28:10.910Z,101699.94
2019-04-29T03:31:18.282Z,101692.44
2019-04-29T03:34:25.771Z,101689.31
2019-04-29T03:37:42.690Z,101686.08
2019-04-29T03:41:01.261Z,101684.80
2019-04-29T03:44:18.029Z,101689.03
2019-04-29T03:47:34.880Z,101692.38
2019-04-29T03:50:51.706Z,101692.75
2019-04-29T03:54:10.806Z,101688.78
2019-04-29T03:57:19.001Z,101696.94
2019-04-29T04:00:43.888Z,101696.34
2019-04-29T04:03:52.936Z,101701.53
2019-04-29T04:07:18.187Z,101701.90
2019-04-29T04:10:25.703Z,101710.77
2019-04-29T04:13:33.120Z,101712.06
2019-04-29T04:17:14.995Z,101717.17
2019-04-29T04:20:22.983Z,101716.33
2019-04-29T04:23:40.725Z,101711.36
2019-04-29T04:26:48.205Z,101717.01
2019-04-29T04:29:55.613Z,101710.12
2019-04-29T04:33:01.298Z,101711.36
2019-04-29T04:36:18.279Z,101710.35
2019-04-29T04:39:36.780Z,101714.99
2019-04-29T04:42:53.495Z,101706.81
2019-04-29T04:46:10.235Z,101712.38
2019-04-29T04:49:27.024Z,101705.45
2019-04-29T04:52:32.682Z,101710.22
2019-04-29T04:55:51.160Z,101704.05
2019-04-29T04:59:07.831Z,101700.16
2019-04-29T05:02:26.132Z,101704.83
2019-04-29T05:05:33.828Z,101710.41
2019-04-29T05:08:39.572Z,101699.32
2019-04-29T05:11:46.879Z,101700.95
2019-04-29T05:14:54.244Z,101702.14
2019-04-29T05:18:01.602Z,101696.98
2019-04-29T05:21:08.869Z,101699.49
2019-04-29T05:24:16.252Z,101701.16
2019-04-29T05:27:23.663Z,101705.84
2019-04-29T05:30:31.382Z,101703.20
2019-04-29T05:33:47.891Z,101697.44
2019-04-29T05:37:22.625Z,101699.95
2019-04-29T05:40:41.253Z,101699.61
2019-04-29T05:43:54.747Z,101697.00
2019-04-29T05:47:07.763Z,101698.68
2019-04-29T05:50:57.530Z,101690.81
2019-04-29T05:54:05.577Z,101695.94
2019-04-29T05:57:25.237Z,101697.52
2019-04-29T06:00:45.599Z,101706.00
2019-04-29T06:03:52.998Z,101703.57
2019-04-29T06:07:00.277Z,101702.55
2019-04-29T06:10:07.907Z,101707.23
2019-04-29T06:13:15.163Z,101708.03
2019-04-29T06:16:22.869Z,101710.98
2019-04-29T06:19:41.044Z,101713.80
2019-04-29T06:22:57.844Z,101709.86
2019-04-29T06:26:05.169Z,101710.35
2019-04-29T06:29:21.902Z,101700.83
2019-04-29T06:32:38.759Z,101709.31
2019-04-29T06:35:57.154Z,101709.27
2019-04-29T06:39:14.300Z,101709.22
2019-04-29T06:42:33.470Z,101718.11
2019-04-29T06:45:51.264Z,101732.59
2019-04-29T06:49:11.326Z,101733.43
2019-04-29T06:52:27.875Z,101740.83
2019-04-29T06:55:44.714Z,101746.41
2019-04-29T06:59:01.470Z,101738.66
2019-04-29T07:02:18.227Z,101736.15
2019-04-29T07:05:23.876Z,101732.80
2019-04-29T07:08:40.800Z,101718.15
2019-04-29T07:11:46.494Z,101715.63
2019-04-29T07:14:53.954Z,101709.52
2019-04-29T07:18:01.314Z,101722.73
2019-04-29T07:21:11.859Z,101732.51
2019-04-29T07:24:20.275Z,101737.08
2019-04-29T07:27:26.728Z,101733.14
2019-04-29T07:30:39.204Z,101732.25
2019-04-29T07:33:42.981Z,101721.45
2019-04-29T07:36:59.866Z,101721.34
2019-04-29T07:40:17.729Z,101732.74
2019-04-29T07:43:25.189Z,101733.62
2019-04-29T07:46:55.668Z,101734.38
2019-04-29T07:49:47.312Z,101735.19
2019-04-29T07:52:55.973Z,101731.36
2019-04-29T07:56:06.515Z,101730.91
2019-04-29T07:59:12.618Z,101726.56
2019-04-29T08:02:29.534Z,101726.31
2019-04-29T08:05:53.102Z,101729.70
2019-04-29T08:09:07.401Z,101730.61
2019-04-29T08:12:20.878Z,101734.73
2019-04-29T08:15:31.587Z,101739.57
2019-04-29T08:18:49.501Z,101734.63
2019-04-29T08:22:05.199Z,101740.95
2019-04-29T08:25:26.038Z,101748.96
2019-04-29T08:28:46.517Z,101747.28
2019-04-29T08:32:03.221Z,101745.06
2019-04-29T08:35:20.001Z,101749.70
2019-04-29T08:38:39.826Z,101743.67
2019-04-29T08:41:45.571Z,101753.05
2019-04-29T08:45:22.972Z,101752.64
2019-04-29T08:48:30.460Z,101752.64
2019-04-29T08:51:37.852Z,101757.28
2019-04-29T08:54:45.284Z,101749.03
2019-04-29T08:57:52.670Z,101754.06
2019-04-29T09:01:09.333Z,101751.33
2019-04-29T09:04:28.570Z,101750.09
2019-04-29T09:07:35.653Z,101754.39
2019-04-29T09:10:43.030Z,101759.71
2019-04-29T09:13:49.295Z,101765.62
2019-04-29T09:17:19.848Z,101759.33
2019-04-29T09:20:24.682Z,101767.48
2019-04-29T09:23:41.512Z,101767.36
2019-04-29T09:27:09.743Z,101763.56
2019-04-29T09:30:26.514Z,101765.31
2019-04-29T09:33:44.285Z,101761.88
2019-04-29T09:37:01.679Z,101765.47
2019-04-29T09:40:20.927Z,101766.69
2019-04-29T09:43:43.488Z,101762.95
2019-04-29T09:46:49.326Z,101761.09
2019-04-29T09:49:56.847Z,101764.30
2019-04-29T09:53:04.242Z,101750.95
2019-04-29T09:56:11.661Z,101757.62
2019-04-29T09:59:24.443Z,101752.25
2019-04-29T10:02:38.069Z,101761.81
2019-04-29T10:05:56.340Z,101756.81
2019-04-29T10:09:20.375Z,101743.48
2019-04-29T10:12:43.097Z,101736.16
2019-04-29T10:16:18.376Z,101733.89
2019-04-29T10:19:43.123Z,101729.64
2019-04-29T10:22:53.703Z,101730.31
2019-04-29T10:26:09.497Z,101725.42
2019-04-29T10:29:28.024Z,101725.58
2019-04-29T10:32:45.812Z,101717.09
2019-04-29T10:36:02.618Z,101724.77
2019-04-29T10:39:42.430Z,101719.91
2019-04-29T10:43:20.064Z,101721.30
2019-04-29T10:46:50.405Z,101722.57
2019-04-29T10:50:01.144Z,101722.55
2019-04-29T10:53:28.773Z,101717.16
2019-04-29T10:56:35.347Z,101723.05
2019-04-29T10:59:46.193Z,101714.11
2019-04-29T11:03:11.248Z,101710.33
2019-04-29T11:06:31.390Z,101707.92
2019-04-29T11:10:00.509Z,101709.30
2019-04-29T11:14:01.477Z,101709.05
2019-04-29T11:17:16.107Z,101700.09
2019-04-29T11:20:21.147Z,101707.55
2019-04-29T11:23:42.703Z,101700.61
2019-04-29T11:27:14.769Z,101695.43
2019-04-29T11:30:24.818Z,101696.03
2019-04-29T11:33:40.096Z,101693.29
2019-04-29T11:36:47.887Z,101677.35
2019-04-29T11:39:57.050Z,101679.22
2019-04-29T11:43:17.288Z,101678.52
2019-04-29T11:46:24.713Z,101683.91
2019-04-29T11:49:40.884Z,101686.61
2019-04-29T11:53:07.820Z,101683.88
2019-04-29T11:56:14.206Z,101681.14
2019-04-29T11:59:49.347Z,101681.02
2019-04-29T12:03:18.995Z,101675.73
2019-04-29T12:06:25.415Z,101684.55
2019-04-29T12:09:33.070Z,101672.39
2019-04-29T12:12:39.430Z,101672.36
2019-04-29T12:15:57.316Z,101673.59
2019-04-29T12:19:16.994Z,101666.89
2019-04-29T12:22:30.097Z,101669.80
2019-04-29T12:25:42.477Z,101669.70
2019-04-29T12:28:49.281Z,101657.39
2019-04-29T12:32:20.601Z,101656.26
2019-04-29T12:35:35.229Z,101656.55
2019-04-29T12:39:06.854Z,101653.89
2019-04-29T12:42:39.825Z,101655.56
2019-04-29T12:45:55.627Z,101654.19
2019-04-29T12:49:03.633Z,101654.64
2019-04-29T12:52:10.696Z,101646.80
2019-04-29T12:55:42.987Z,101645.67
2019-04-29T12:58:31.701Z,101642.08
2019-04-29T13:02:14.169Z,101647.01
2019-04-29T13:05:40.554Z,101646.03
2019-04-29T13:08:51.077Z,101638.48
2019-04-29T13:12:17.822Z,101634.68
2019-04-29T13:15:35.762Z,101631.82
2019-04-29T13:19:11.397Z,101637.45
2019-04-29T13:22:10.645Z,101634.90
2019-04-29T13:25:28.244Z,101629.61
2019-04-29T13:28:34.782Z,101634.28
2019-04-29T13:31:43.105Z,101635.77
2019-04-29T13:34:51.978Z,101624.41
2019-04-29T13:37:58.646Z,101623.64
2019-04-29T13:41:23.684Z,101626.69
2019-04-29T13:44:41.313Z,101623.66
2019-04-29T13:47:54.267Z,101615.05
2019-04-29T13:51:07.676Z,101614.64
2019-04-29T13:54:31.818Z,101626.16
2019-04-29T13:57:49.582Z,101616.73
2019-04-29T14:01:23.700Z,101621.31
2019-04-29T14:04:29.371Z,101623.90
2019-04-29T14:07:39.383Z,101620.24
2019-04-29T14:10:46.832Z,101622.38
2019-04-29T14:14:04.518Z,101614.16
2019-04-29T14:18:53.657Z,101610.72
2019-04-29T14:20:39.809Z,101616.28
2019-04-29T14:23:56.725Z,101616.65
2019-04-29T14:27:24.632Z,101621.38
2019-04-29T14:30:38.958Z,101614.83
2019-04-29T14:34:00.338Z,101617.42
2019-04-29T14:37:21.336Z,101613.69
2019-04-29T14:40:15.446Z,101618.77
2019-04-29T14:43:57.428Z,101613.59
2019-04-29T14:47:36.272Z,101626.36
2019-04-29T14:50:44.912Z,101620.15
2019-04-29T14:53:56.636Z,101628.98
2019-04-29T14:57:01.788Z,101616.22
2019-04-29T15:00:14.830Z,101618.34
2019-04-29T15:03:23.487Z,101622.98
2019-04-29T15:06:30.934Z,101625.09
2019-04-29T15:09:55.946Z,101629.58
2019-04-29T15:13:20.744Z,101626.70
2019-04-29T15:16:34.941Z,101630.48
2019-04-29T15:20:16.620Z,101626.88
2019-04-29T15:23:28.788Z,101629.27
2019-04-29T15:26:31.493Z,101629.65
2019-04-29T15:29:48.250Z,101640.12
2019-04-29T15:33:06.364Z,101640.12
2019-04-29T15:36:13.794Z,101636.95
2019-04-29T15:39:31.078Z,101637.04
2019-04-29T15:42:42.767Z,101636.89
2019-04-29T15:45:48.008Z,101641.41
2019-04-29T15:48:55.385Z,101648.80
2019-04-29T15:52:02.982Z,101645.01
2019-04-29T15:55:24.564Z,101649.34
2019-04-29T15:58:41.317Z,101646.06
2019-04-29T16:01:48.323Z,101665.36
2019-04-29T16:05:04.760Z,101652.64
2019-04-29T16:08:22.896Z,101653.73
2019-04-29T16:11:54.913Z,101653.90
2019-04-29T16:15:25.493Z,101651.16
2019-04-29T16:18:42.297Z,101649.73
2019-04-29T16:21:49.390Z,101648.75
2019-04-29T16:24:59.415Z,101650.30
2019-04-29T16:28:05.522Z,101649.22
2019-04-29T16:31:22.502Z,101648.92
2019-04-29T16:34:44.660Z,101649.77
2019-04-29T16:37:57.543Z,101653.83
2019-04-29T16:41:32.301Z,101661.51
2019-04-29T16:44:39.871Z,101667.72
2019-04-29T16:47:48.648Z,101661.70
2019-04-29T16:50:56.303Z,101663.06
2019-04-29T16:54:03.842Z,101667.44
2019-04-29T16:57:11.326Z,101664.32
2019-04-29T17:00:31.503Z,101662.17
2019-04-29T17:03:39.074Z,101666.05
2019-04-29T17:07:10.732Z,101657.74
2019-04-29T17:10:20.209Z,101664.81
2019-04-29T17:13:44.686Z,101663.26
2019-04-29T17:17:01.596Z,101664.42
2019-04-29T17:20:22.266Z,101672.77
2019-04-29T17:23:29.723Z,101669.28
2019-04-29T17:26:44.357Z,101672.70
2019-04-29T17:30:12.193Z,101672.93
2019-04-29T17:33:40.026Z,101672.62
2019-04-29T17:36:46.973Z,101673.60
2019-04-29T17:39:54.647Z,101676.64
2019-04-29T17:43:43.123Z,101674.13
2019-04-29T17:47:15.223Z,101677.23
2019-04-29T17:50:30.564Z,101682.75
2019-04-29T17:53:46.003Z,101679.95
2019-04-29T17:57:24.839Z,101674.23
2019-04-29T18:00:59.584Z,101685.63
2019-04-29T18:04:22.985Z,101689.33
2019-04-29T18:07:58.351Z,101695.63
2019-04-29T18:11:08.163Z,101692.06
2019-04-29T18:14:25.273Z,101693.83
2019-04-29T18:17:43.263Z,101702.69
2019-04-29T18:21:07.160Z,101700.39
2019-04-29T18:24:25.268Z,101705.03
2019-04-29T18:27:36.356Z,101700.33
2019-04-29T18:30:45.022Z,101709.47
2019-04-29T18:33:52.769Z,101708.13
2019-04-29T18:37:11.864Z,101705.23
2019-04-29T18:40:30.244Z,101699.98
2019-04-29T18:43:47.216Z,101698.43
2019-04-29T18:46:57.109Z,101709.98
2019-04-29T18:50:02.947Z,101706.84
2019-04-29T18:53:10.427Z,101710.77
2019-04-29T18:56:32.225Z,101705.83
2019-04-29T18:59:42.142Z,101709.69
2019-04-29T19:02:56.933Z,101708.13
2019-04-29T19:05:58.578Z,101712.31
2019-04-29T19:09:17.479Z,101710.75
2019-04-29T19:12:15.472Z,101717.10
2019-04-29T19:15:22.962Z,101712.77
2019-04-29T19:18:28.639Z,101716.88
2019-04-29T19:21:45.551Z,101709.28
2019-04-29T19:25:08.686Z,101717.73
2019-04-29T19:28:29.446Z,101717.64
2019-04-29T19:31:46.810Z,101725.31
2019-04-29T19:34:59.041Z,101722.19
2019-04-29T19:38:16.084Z,101720.91
2019-04-29T19:41:38.885Z,101727.10
2019-04-29T19:44:55.538Z,101723.45
2019-04-29T19:48:02.969Z,101729.45
2019-04-29T19:51:22.948Z,101726.64
2019-04-29T19:54:38.003Z,101725.57
2019-04-29T19:57:56.200Z,101727.17
2019-04-29T20:01:11.573Z,101723.28
2019-04-29T20:04:22.965Z,101726.49
2019-04-29T20:07:31.526Z,101736.56
2019-04-29T20:10:45.947Z,101732.15
2019-04-29T20:14:04.803Z,101733.98
2019-04-29T20:17:54.418Z,101736.43
2019-04-29T20:21:28.943Z,101736.41
2019-04-29T20:24:17.921Z,101736.19
2019-04-29T20:27:26.054Z,101738.54
2019-04-29T20:30:34.486Z,101740.44
2019-04-29T20:33:51.545Z,101737.56
2019-04-29T20:37:10.717Z,101743.70
2019-04-29T20:40:16.440Z,101753.76
2019-04-29T20:43:25.973Z,101742.09
2019-04-29T20:46:51.691Z,101740.02
2019-04-29T20:49:52.103Z,101739.81
2019-04-29T20:53:08.587Z,101743.02
2019-04-29T20:56:23.638Z,101747.45
2019-04-29T20:59:25.996Z,101748.82
2019-04-29T21:02:35.343Z,101740.05
2019-04-29T21:05:48.115Z,101749.93
2019-04-29T21:08:52.309Z,101745.87
2019-04-29T21:12:29.747Z,101743.28
2019-04-29T21:15:55.581Z,101738.38
2019-04-29T21:19:08.780Z,101738.16
2019-04-29T21:22:26.026Z,101736.48
2019-04-29T21:25:35.439Z,101743.90
2019-04-29T21:28:45.321Z,101747.44
2019-04-29T21:32:01.831Z,101743.20
2019-04-29T21:35:18.719Z,101748.14
2019-04-29T21:38:55.845Z,101750.36
2019-04-29T21:42:36.974Z,101758.26
2019-04-29T21:45:44.958Z,101758.82
2019-04-29T21:48:52.505Z,101763.13
2019-04-29T21:52:09.225Z,101765.70
2019-04-29T21:55:16.164Z,101762.91
2019-04-29T21:58:23.775Z,101765.58
2019-04-29T22:01:40.562Z,101767.75
2019-04-29T22:04:57.558Z,101769.17
2019-04-29T22:08:16.230Z,101776.87
2019-04-29T22:11:23.032Z,101771.49
2019-04-29T22:14:30.258Z,101775.32
2019-04-29T22:17:37.809Z,101778.83
2019-04-29T22:20:54.740Z,101774.59
2019-04-29T22:24:11.369Z,101777.20
2019-04-29T22:27:28.299Z,101773.94
2019-04-29T22:30:45.344Z,101774.38
2019-04-29T22:33:53.001Z,101777.92
2019-04-29T22:37:01.282Z,101775.87
2019-04-29T22:40:18.022Z,101769.92
2019-04-29T22:43:47.322Z,101768.34
2019-04-29T22:46:55.521Z,101770.09
2019-04-29T22:50:04.429Z,101765.09
2019-04-29T22:53:12.260Z,101771.52
2019-04-29T22:56:19.512Z,101760.98
2019-04-29T22:59:36.318Z,101764.34
2019-04-29T23:02:53.158Z,101762.31
2019-04-29T23:06:09.970Z,101767.90
2019-04-29T23:09:30.446Z,101763.27
2019-04-29T23:12:53.971Z,101749.31
2019-04-29T23:16:08.004Z,101758.70
2019-04-29T23:19:25.951Z,101754.06
2019-04-29T23:22:48.341Z,101756.30
2019-04-29T23:25:59.971Z,101751.22
2019-04-29T23:29:07.351Z,101742.82
2019-04-29T23:32:15.336Z,101744.52
2019-04-29T23:35:25.019Z,101743.27
2019-04-29T23:38:42.791Z,101737.80
2019-04-29T23:41:48.830Z,101740.44
2019-04-29T23:45:05.932Z,101741.30
2019-04-29T23:48:13.352Z,101736.30
2019-04-29T23:51:21.224Z,101736.30
2019-04-29T23:54:48.286Z,101732.95
2019-04-29T23:58:20.253Z,101736.38
